createdAt,value
2022-12-28T00:00:21.675Z,3.17
2022-12-28T00:01:21.229Z,3.50
2022-12-28T00:02:21.133Z,2.21
2022-12-28T00:03:20.807Z,3.17
2022-12-28T00:04:20.736Z,2.21
2022-12-28T00:05:20.714Z,3.17
2022-12-28T00:06:20.707Z,3.17
2022-12-28T00:07:21.332Z,1.56
2022-12-28T00:08:20.687Z,3.17
2022-12-28T00:09:20.676Z,3.17
2022-12-28T00:11:06.659Z,3.50
2022-12-28T00:11:27.540Z,4.14
2022-12-28T00:12:20.655Z,2.53
2022-12-28T00:13:21.147Z,3.50
2022-12-28T00:14:20.629Z,3.50
2022-12-28T00:15:20.621Z,2.53
2022-12-28T00:16:20.628Z,3.50
2022-12-28T00:17:20.978Z,2.85
2022-12-28T00:18:20.584Z,3.50
2022-12-28T00:19:20.572Z,4.46
2022-12-28T00:20:21.368Z,3.50
2022-12-28T00:21:20.550Z,4.14
2022-12-28T00:22:20.551Z,3.50
2022-12-28T00:23:20.530Z,3.82
2022-12-28T00:24:20.532Z,2.21
2022-12-28T00:25:20.951Z,3.50
2022-12-28T00:26:20.509Z,3.17
2022-12-28T00:27:20.492Z,3.82
2022-12-28T00:28:20.489Z,4.14
2022-12-28T00:29:20.505Z,2.85
2022-12-28T00:30:21.261Z,3.82
2022-12-28T00:31:20.489Z,3.82
2022-12-28T00:32:20.493Z,3.82
2022-12-28T00:33:20.432Z,3.50
2022-12-28T00:34:20.430Z,3.50
2022-12-28T00:35:21.298Z,2.21
2022-12-28T00:36:20.409Z,3.50
2022-12-28T00:37:20.406Z,2.85
2022-12-28T00:38:20.414Z,3.50
2022-12-28T00:39:21.079Z,3.17
2022-12-28T00:40:24.009Z,1.88
2022-12-28T00:41:20.349Z,3.82
2022-12-28T00:42:20.345Z,3.17
2022-12-28T00:43:20.850Z,4.14
2022-12-28T00:44:20.326Z,3.82
2022-12-28T00:45:20.308Z,4.14
2022-12-28T00:46:20.691Z,4.79
2022-12-28T00:47:20.300Z,3.82
2022-12-28T00:48:20.281Z,2.53
2022-12-28T00:49:20.287Z,3.82
2022-12-28T00:50:21.047Z,2.85
2022-12-28T00:51:20.271Z,3.82
2022-12-28T00:52:20.237Z,3.82
2022-12-28T00:53:20.236Z,2.53
2022-12-28T00:54:20.218Z,3.82
2022-12-28T00:55:20.551Z,3.50
2022-12-28T00:56:20.215Z,3.50
2022-12-28T00:57:20.212Z,4.46
2022-12-28T00:58:20.179Z,1.88
2022-12-28T00:59:20.173Z,4.79
2022-12-28T01:00:20.157Z,3.17
2022-12-28T01:01:20.279Z,3.82
2022-12-28T01:02:20.529Z,3.82
2022-12-28T01:03:20.174Z,3.82
2022-12-28T01:04:20.119Z,3.82
2022-12-28T01:05:20.863Z,4.79
2022-12-28T01:06:20.101Z,4.79
2022-12-28T01:07:20.500Z,4.14
2022-12-28T01:08:20.075Z,4.79
2022-12-28T01:09:20.081Z,3.50
2022-12-28T01:10:20.064Z,3.82
2022-12-28T01:11:20.057Z,3.82
2022-12-28T01:12:20.036Z,3.17
2022-12-28T01:13:20.448Z,3.17
2022-12-28T01:14:20.015Z,4.14
2022-12-28T01:15:20.010Z,2.85
2022-12-28T01:16:20.033Z,4.46
2022-12-28T01:17:19.991Z,3.82
2022-12-28T01:18:20.391Z,3.82
2022-12-28T01:19:20.386Z,3.17
2022-12-28T01:20:19.958Z,5.43
2022-12-28T01:21:19.955Z,2.21
2022-12-28T01:22:19.953Z,5.11
2022-12-28T01:23:19.952Z,3.50
2022-12-28T01:24:20.247Z,4.46
2022-12-28T01:25:19.912Z,4.79
2022-12-28T01:26:19.901Z,4.14
2022-12-28T01:27:19.900Z,4.46
2022-12-28T01:28:19.877Z,2.85
2022-12-28T01:29:20.264Z,3.17
2022-12-28T01:30:19.866Z,3.82
2022-12-28T01:31:19.960Z,3.82
2022-12-28T01:32:19.835Z,4.79
2022-12-28T01:33:20.249Z,4.14
2022-12-28T01:34:19.825Z,3.82
2022-12-28T01:35:19.811Z,3.82
2022-12-28T01:36:19.795Z,5.11
2022-12-28T01:37:19.789Z,2.85
2022-12-28T01:38:19.783Z,3.82
2022-12-28T01:39:19.766Z,4.46
2022-12-28T01:40:19.749Z,5.75
2022-12-28T01:41:19.773Z,2.85
2022-12-28T01:42:20.117Z,4.14
2022-12-28T01:43:29.862Z,2.53
2022-12-28T01:44:20.131Z,4.46
2022-12-28T01:45:19.711Z,3.82
2022-12-28T01:46:19.713Z,3.17
2022-12-28T01:47:19.689Z,1.88
2022-12-28T01:48:20.150Z,4.46
2022-12-28T01:49:20.060Z,4.14
2022-12-28T01:50:19.651Z,4.46
2022-12-28T01:51:19.644Z,4.14
2022-12-28T01:52:19.632Z,5.43
2022-12-28T01:53:20.007Z,5.75
2022-12-28T01:54:19.612Z,2.85
2022-12-28T01:55:20.130Z,3.50
2022-12-28T01:56:19.593Z,2.85
2022-12-28T01:57:19.590Z,3.50
2022-12-28T01:58:19.575Z,4.14
2022-12-28T01:59:19.570Z,4.46
2022-12-28T02:00:20.304Z,2.21
2022-12-28T02:01:19.678Z,4.46
2022-12-28T02:02:19.650Z,3.17
2022-12-28T02:03:19.590Z,0.27
2022-12-28T02:04:19.964Z,3.50
2022-12-28T02:05:19.511Z,4.46
2022-12-28T02:06:19.517Z,5.43
2022-12-28T02:07:19.486Z,3.17
2022-12-28T02:08:19.468Z,5.11
2022-12-28T02:09:20.081Z,4.46
2022-12-28T02:10:41.493Z,4.79
2022-12-28T02:11:19.452Z,3.82
2022-12-28T02:12:19.432Z,4.46
2022-12-28T02:13:19.430Z,3.50
2022-12-28T02:14:19.419Z,0.92
2022-12-28T02:15:23.071Z,4.14
2022-12-28T02:16:19.473Z,4.46
2022-12-28T02:17:19.391Z,5.11
2022-12-28T02:18:19.782Z,4.46
2022-12-28T02:19:19.362Z,4.14
2022-12-28T02:20:19.350Z,5.11
2022-12-28T02:21:19.349Z,4.14
2022-12-28T02:22:19.332Z,3.50
2022-12-28T02:23:19.738Z,4.14
2022-12-28T02:24:19.307Z,4.14
2022-12-28T02:25:19.302Z,4.79
2022-12-28T02:26:19.285Z,4.46
2022-12-28T02:27:19.286Z,4.14
2022-12-28T02:28:19.265Z,4.14
2022-12-28T02:29:19.272Z,2.85
2022-12-28T02:30:19.251Z,4.14
2022-12-28T02:31:19.258Z,4.46
2022-12-28T02:32:19.627Z,3.82
2022-12-28T02:33:19.224Z,4.14
2022-12-28T02:34:19.239Z,4.46
2022-12-28T02:35:19.205Z,4.46
2022-12-28T02:36:19.188Z,4.46
2022-12-28T02:37:20.080Z,4.46
2022-12-28T02:38:19.170Z,3.50
2022-12-28T02:39:19.535Z,4.79
2022-12-28T02:40:19.148Z,4.46
2022-12-28T02:41:19.143Z,4.14
2022-12-28T02:42:19.132Z,3.82
2022-12-28T02:43:19.576Z,5.75
2022-12-28T02:44:19.106Z,3.50
2022-12-28T02:45:19.107Z,4.46
2022-12-28T02:46:19.123Z,3.82
2022-12-28T02:47:19.084Z,4.14
2022-12-28T02:48:19.470Z,4.79
2022-12-28T02:49:19.457Z,4.14
2022-12-28T02:50:19.053Z,4.14
2022-12-28T02:51:19.054Z,4.46
2022-12-28T02:52:19.024Z,4.79
2022-12-28T02:53:19.020Z,4.14
2022-12-28T02:54:19.014Z,3.50
2022-12-28T02:55:19.012Z,4.46
2022-12-28T02:56:18.983Z,4.14
2022-12-28T02:57:19.377Z,4.79
2022-12-28T02:58:18.969Z,4.46
2022-12-28T02:59:18.958Z,2.53
2022-12-28T03:00:18.948Z,4.79
2022-12-28T03:01:19.064Z,4.14
2022-12-28T03:02:19.098Z,3.50
2022-12-28T03:03:19.356Z,2.85
2022-12-28T03:04:19.293Z,4.46
2022-12-28T03:05:18.897Z,4.46
2022-12-28T03:06:19.801Z,4.14
2022-12-28T03:07:18.879Z,4.79
2022-12-28T03:08:18.863Z,4.14
2022-12-28T03:09:19.188Z,2.53
2022-12-28T03:10:18.851Z,4.79
2022-12-28T03:11:18.867Z,3.17
2022-12-28T03:12:18.826Z,5.43
2022-12-28T03:13:18.846Z,4.46
2022-12-28T03:14:19.188Z,4.46
2022-12-28T03:15:19.286Z,3.82
2022-12-28T03:16:18.807Z,5.75
2022-12-28T03:17:18.781Z,4.46
2022-12-28T03:18:18.766Z,4.79
2022-12-28T03:19:19.152Z,4.46
2022-12-28T03:20:18.739Z,4.79
2022-12-28T03:21:18.740Z,2.53
2022-12-28T03:22:18.726Z,3.17
2022-12-28T03:23:18.715Z,4.14
2022-12-28T03:24:19.114Z,2.53
2022-12-28T03:25:18.696Z,3.50
2022-12-28T03:26:18.680Z,2.53
2022-12-28T03:27:19.082Z,4.79
2022-12-28T03:28:18.657Z,4.46
2022-12-28T03:29:18.654Z,4.79
2022-12-28T03:30:18.654Z,4.14
2022-12-28T03:31:18.676Z,4.14
2022-12-28T03:32:18.623Z,4.46
2022-12-28T03:33:18.626Z,4.14
2022-12-28T03:34:18.607Z,2.53
2022-12-28T03:35:18.601Z,4.46
2022-12-28T03:36:18.589Z,4.79
2022-12-28T03:37:18.585Z,4.79
2022-12-28T03:38:18.954Z,3.50
2022-12-28T03:39:18.553Z,4.46
2022-12-28T03:40:18.537Z,5.11
2022-12-28T03:41:18.532Z,4.46
2022-12-28T03:42:18.525Z,4.46
2022-12-28T03:43:18.513Z,3.82
2022-12-28T03:44:18.504Z,4.46
2022-12-28T03:45:45.384Z,4.79
2022-12-28T03:46:18.521Z,4.46
2022-12-28T03:47:18.469Z,3.82
2022-12-28T03:48:18.466Z,4.46
2022-12-28T03:49:18.450Z,5.11
2022-12-28T03:50:18.439Z,2.53
2022-12-28T03:51:18.434Z,4.79
2022-12-28T03:52:18.889Z,4.46
2022-12-28T03:53:18.430Z,3.82
2022-12-28T03:54:18.398Z,4.46
2022-12-28T03:55:18.394Z,4.46
2022-12-28T03:56:18.637Z,3.50
2022-12-28T03:57:18.371Z,4.46
2022-12-28T03:58:18.611Z,5.43
2022-12-28T03:59:18.358Z,4.46
2022-12-28T04:00:19.090Z,3.82
2022-12-28T04:01:18.448Z,4.14
2022-12-28T04:02:19.173Z,4.79
2022-12-28T04:03:18.340Z,5.43
2022-12-28T04:04:18.310Z,4.79
2022-12-28T04:05:18.293Z,2.85
2022-12-28T04:06:18.291Z,3.17
2022-12-28T04:07:18.268Z,4.46
2022-12-28T04:08:18.261Z,4.46
2022-12-28T04:09:18.253Z,4.79
2022-12-28T04:10:18.236Z,6.40
2022-12-28T04:11:18.234Z,4.46
2022-12-28T04:12:18.224Z,4.46
2022-12-28T04:13:18.693Z,6.07
2022-12-28T04:14:18.202Z,5.43
2022-12-28T04:15:18.785Z,4.79
2022-12-28T04:16:18.249Z,5.75
2022-12-28T04:17:18.175Z,4.14
2022-12-28T04:18:18.155Z,4.14
2022-12-28T04:19:18.150Z,4.14
2022-12-28T04:20:18.954Z,5.11
2022-12-28T04:21:18.132Z,5.43
2022-12-28T04:22:18.119Z,5.43
2022-12-28T04:23:18.109Z,4.46
2022-12-28T04:24:18.096Z,4.46
2022-12-28T04:25:18.483Z,6.07
2022-12-28T04:26:18.084Z,5.11
2022-12-28T04:27:18.077Z,4.46
2022-12-28T04:28:18.052Z,4.79
2022-12-28T04:29:18.464Z,4.79
2022-12-28T04:30:18.037Z,5.43
2022-12-28T04:31:18.059Z,4.14
2022-12-28T04:32:18.798Z,2.85
2022-12-28T04:33:18.021Z,4.79
2022-12-28T04:34:18.002Z,4.46
2022-12-28T04:35:17.984Z,4.79
2022-12-28T04:36:17.976Z,4.79
2022-12-28T04:37:17.977Z,4.46
2022-12-28T04:38:17.963Z,4.46
2022-12-28T04:39:17.957Z,4.79
2022-12-28T04:40:18.285Z,6.40
2022-12-28T04:41:17.930Z,5.11
2022-12-28T04:42:17.910Z,1.88
2022-12-28T04:43:17.903Z,3.50
2022-12-28T04:44:17.896Z,4.46
2022-12-28T04:45:22.003Z,4.79
2022-12-28T04:46:17.953Z,6.07
2022-12-28T04:47:17.869Z,5.11
2022-12-28T04:48:17.853Z,3.82
2022-12-28T04:49:18.222Z,3.82
2022-12-28T04:50:17.860Z,4.46
2022-12-28T04:51:17.867Z,4.46
2022-12-28T04:52:17.817Z,4.46
2022-12-28T04:53:17.812Z,5.75
2022-12-28T04:54:18.221Z,3.50
2022-12-28T04:55:31.426Z,3.50
2022-12-28T04:56:17.786Z,4.79
2022-12-28T04:57:17.763Z,4.46
2022-12-28T04:58:17.749Z,4.79
2022-12-28T04:59:17.762Z,4.79
2022-12-28T05:00:17.730Z,4.14
2022-12-28T05:01:17.861Z,5.11
2022-12-28T05:02:17.894Z,4.79
2022-12-28T05:03:17.709Z,1.88
2022-12-28T05:04:18.036Z,4.79
2022-12-28T05:05:18.475Z,3.82
2022-12-28T05:06:17.675Z,5.11
2022-12-28T05:07:17.676Z,4.79
2022-12-28T05:08:17.895Z,3.50
2022-12-28T05:09:17.642Z,4.46
2022-12-28T05:10:17.635Z,4.46
2022-12-28T05:11:17.617Z,4.14
2022-12-28T05:12:17.997Z,4.79
2022-12-28T05:13:17.690Z,3.17
2022-12-28T05:14:17.606Z,4.14
2022-12-28T05:15:17.591Z,4.46
2022-12-28T05:16:17.617Z,2.53
2022-12-28T05:17:17.562Z,4.46
2022-12-28T05:18:17.554Z,3.82
2022-12-28T05:19:18.023Z,3.82
2022-12-28T05:20:17.537Z,5.75
2022-12-28T05:21:17.527Z,5.43
2022-12-28T05:22:17.512Z,4.79
2022-12-28T05:23:17.930Z,3.50
2022-12-28T05:24:17.498Z,4.79
2022-12-28T05:25:17.481Z,4.14
2022-12-28T05:26:17.474Z,5.11
2022-12-28T05:27:17.463Z,4.79
2022-12-28T05:28:17.972Z,3.82
2022-12-28T05:29:17.853Z,4.79
2022-12-28T05:30:17.435Z,3.82
2022-12-28T05:31:17.430Z,4.79
2022-12-28T05:32:17.432Z,5.43
2022-12-28T05:33:17.400Z,4.14
2022-12-28T05:34:17.806Z,4.79
2022-12-28T05:35:17.375Z,3.50
2022-12-28T05:36:17.375Z,4.79
2022-12-28T05:37:21.926Z,4.79
2022-12-28T05:38:17.970Z,5.43
2022-12-28T05:39:17.334Z,4.79
2022-12-28T05:40:17.336Z,5.11
2022-12-28T05:41:17.315Z,3.17
2022-12-28T05:42:17.314Z,4.46
2022-12-28T05:43:17.295Z,4.79
2022-12-28T05:44:17.676Z,4.79
2022-12-28T05:45:17.275Z,4.46
2022-12-28T05:46:17.329Z,4.46
2022-12-28T05:47:17.261Z,4.46
2022-12-28T05:48:17.255Z,5.11
2022-12-28T05:49:17.587Z,3.82
2022-12-28T05:50:17.245Z,4.46
2022-12-28T05:51:17.221Z,5.11
2022-12-28T05:52:18.088Z,5.43
2022-12-28T05:53:17.200Z,6.72
2022-12-28T05:54:17.189Z,2.85
2022-12-28T05:55:17.185Z,4.79
2022-12-28T05:56:17.178Z,5.43
2022-12-28T05:57:17.165Z,4.79
2022-12-28T05:58:17.159Z,5.11
2022-12-28T05:59:17.486Z,4.14
2022-12-28T06:00:17.147Z,4.79
2022-12-28T06:01:17.168Z,4.79
2022-12-28T06:02:21.569Z,4.79
2022-12-28T06:03:17.248Z,5.11
2022-12-28T06:04:17.099Z,5.11
2022-12-28T06:05:17.855Z,4.46
2022-12-28T06:06:17.087Z,5.43
2022-12-28T06:07:17.055Z,5.43
2022-12-28T06:08:21.035Z,5.11
2022-12-28T06:09:17.365Z,5.11
2022-12-28T06:10:17.029Z,4.79
2022-12-28T06:11:17.031Z,5.11
2022-12-28T06:12:17.016Z,4.79
2022-12-28T06:13:16.993Z,2.85
2022-12-28T06:14:16.988Z,2.85
2022-12-28T06:15:17.211Z,5.11
2022-12-28T06:16:17.002Z,3.50
2022-12-28T06:17:16.984Z,5.11
2022-12-28T06:18:16.953Z,3.50
2022-12-28T06:19:17.275Z,4.79
2022-12-28T06:20:16.947Z,4.79
2022-12-28T06:21:16.917Z,4.79
2022-12-28T06:22:16.912Z,5.11
2022-12-28T06:23:16.891Z,5.43
2022-12-28T06:24:17.140Z,5.75
2022-12-28T06:25:16.881Z,4.79
2022-12-28T06:26:17.102Z,4.14
2022-12-28T06:27:16.851Z,5.11
2022-12-28T06:28:16.847Z,2.85
2022-12-28T06:29:16.843Z,5.75
2022-12-28T06:30:17.282Z,5.75
2022-12-28T06:31:16.885Z,4.14
2022-12-28T06:32:16.813Z,3.82
2022-12-28T06:33:16.798Z,5.75
2022-12-28T06:34:16.794Z,4.79
2022-12-28T06:35:17.676Z,5.11
2022-12-28T06:36:20.259Z,4.46
2022-12-28T06:37:16.750Z,4.79
2022-12-28T06:38:16.751Z,5.43
2022-12-28T06:39:16.740Z,4.79
2022-12-28T06:40:17.137Z,5.11
2022-12-28T06:41:16.745Z,4.14
2022-12-28T06:42:16.769Z,5.11
2022-12-28T06:43:16.697Z,3.50
2022-12-28T06:44:16.699Z,5.11
2022-12-28T06:45:17.005Z,5.11
2022-12-28T06:46:16.722Z,5.11
2022-12-28T06:47:16.652Z,5.43
2022-12-28T06:48:16.652Z,5.11
2022-12-28T06:49:16.674Z,5.11
2022-12-28T06:50:17.436Z,3.50
2022-12-28T06:51:16.668Z,5.75
2022-12-28T06:52:17.012Z,5.43
2022-12-28T06:53:16.593Z,3.17
2022-12-28T06:54:16.597Z,5.43
2022-12-28T06:55:17.052Z,5.43
2022-12-28T06:56:16.573Z,6.40
2022-12-28T06:57:16.507Z,5.43
2022-12-28T06:58:16.551Z,5.11
2022-12-28T06:59:16.893Z,5.11
2022-12-28T07:00:16.477Z,5.43
2022-12-28T07:01:16.713Z,4.79
2022-12-28T07:02:17.499Z,5.43
2022-12-28T07:03:16.489Z,5.43
2022-12-28T07:04:16.431Z,5.11
2022-12-28T07:05:16.435Z,4.14
2022-12-28T07:06:16.483Z,4.14
2022-12-28T07:07:16.436Z,4.79
2022-12-28T07:08:16.396Z,4.14
2022-12-28T07:09:16.888Z,4.79
2022-12-28T07:10:16.388Z,5.11
2022-12-28T07:11:16.371Z,3.50
2022-12-28T07:12:16.758Z,4.46
2022-12-28T07:13:16.340Z,5.43
2022-12-28T07:14:16.341Z,4.79
2022-12-28T07:15:16.327Z,4.46
2022-12-28T07:16:16.366Z,5.11
2022-12-28T07:17:16.305Z,5.43
2022-12-28T07:18:16.304Z,3.82
2022-12-28T07:19:16.293Z,5.75
2022-12-28T07:20:16.266Z,5.11
2022-12-28T07:21:16.299Z,3.17
2022-12-28T07:22:16.264Z,5.11
2022-12-28T07:23:16.242Z,6.07
2022-12-28T07:24:16.260Z,4.79
2022-12-28T07:25:16.218Z,6.40
2022-12-28T07:26:16.226Z,5.11
2022-12-28T07:27:16.203Z,5.43
2022-12-28T07:28:16.191Z,4.46
2022-12-28T07:29:16.182Z,4.14
2022-12-28T07:30:16.204Z,5.11
2022-12-28T07:31:16.285Z,5.11
2022-12-28T07:32:16.152Z,5.11
2022-12-28T07:33:16.141Z,6.40
2022-12-28T07:34:16.375Z,6.72
2022-12-28T07:35:16.127Z,5.75
2022-12-28T07:36:16.965Z,5.11
2022-12-28T07:37:16.105Z,5.43
2022-12-28T07:38:21.109Z,6.07
2022-12-28T07:39:16.087Z,5.11
2022-12-28T07:40:16.083Z,6.07
2022-12-28T07:41:16.079Z,5.11
2022-12-28T07:42:16.999Z,5.11
2022-12-28T07:43:16.047Z,3.82
2022-12-28T07:44:16.045Z,5.43
2022-12-28T07:45:16.063Z,5.11
2022-12-28T07:46:16.107Z,5.11
2022-12-28T07:47:16.414Z,4.14
2022-12-28T07:48:16.007Z,5.11
2022-12-28T07:49:15.990Z,5.43
2022-12-28T07:50:16.028Z,4.79
2022-12-28T07:51:15.975Z,6.07
2022-12-28T07:52:15.956Z,5.43
2022-12-28T07:53:21.842Z,5.43
2022-12-28T07:54:16.348Z,5.11
2022-12-28T07:55:15.915Z,4.79
2022-12-28T07:56:15.916Z,5.43
2022-12-28T07:57:15.901Z,6.07
2022-12-28T07:58:15.894Z,4.79
2022-12-28T07:59:15.875Z,5.43
2022-12-28T08:00:15.880Z,3.82
2022-12-28T08:01:15.942Z,6.40
2022-12-28T08:02:16.097Z,5.43
2022-12-28T08:03:15.879Z,5.11
2022-12-28T08:04:15.836Z,4.46
2022-12-28T08:05:17.579Z,3.82
2022-12-28T08:06:15.865Z,5.43
2022-12-28T08:07:16.380Z,5.43
2022-12-28T08:08:15.791Z,5.43
2022-12-28T08:09:15.816Z,5.43
2022-12-28T08:10:15.777Z,3.50
2022-12-28T08:11:15.756Z,4.79
2022-12-28T08:12:15.782Z,5.11
2022-12-28T08:13:15.735Z,5.11
2022-12-28T08:14:15.741Z,5.43
2022-12-28T08:15:15.729Z,3.50
2022-12-28T08:16:15.767Z,3.50
2022-12-28T08:17:20.956Z,1.88
2022-12-28T08:18:15.698Z,5.11
2022-12-28T08:19:15.915Z,5.43
2022-12-28T08:20:15.679Z,5.75
2022-12-28T08:21:15.670Z,4.79
2022-12-28T08:22:15.653Z,4.46
2022-12-28T08:23:15.638Z,5.43
2022-12-28T08:24:15.645Z,5.43
2022-12-28T08:25:15.616Z,5.43
2022-12-28T08:26:15.631Z,5.43
2022-12-28T08:27:15.596Z,5.43
2022-12-28T08:28:15.597Z,5.75
2022-12-28T08:29:15.584Z,5.43
2022-12-28T08:30:15.571Z,5.43
2022-12-28T08:31:15.623Z,5.75
2022-12-28T08:32:15.554Z,5.75
2022-12-28T08:33:15.545Z,3.50
2022-12-28T08:34:15.539Z,3.82
2022-12-28T08:35:15.517Z,3.82
2022-12-28T08:36:15.513Z,6.40
2022-12-28T08:37:15.982Z,4.79
2022-12-28T08:38:15.500Z,5.11
2022-12-28T08:39:15.480Z,4.46
2022-12-28T08:40:15.486Z,4.79
2022-12-28T08:41:15.462Z,5.75
2022-12-28T08:42:15.452Z,6.40
2022-12-28T08:43:15.454Z,5.43
2022-12-28T08:44:15.432Z,4.46
2022-12-28T08:45:15.416Z,6.72
2022-12-28T08:46:15.488Z,6.07
2022-12-28T08:47:15.449Z,5.43
2022-12-28T08:48:15.392Z,6.72
2022-12-28T08:49:15.388Z,5.75
2022-12-28T08:50:19.815Z,6.07
2022-12-28T08:51:15.359Z,6.07
2022-12-28T08:52:15.355Z,6.07
2022-12-28T08:53:15.342Z,3.82
2022-12-28T08:54:15.332Z,6.07
2022-12-28T08:55:15.317Z,5.11
2022-12-28T08:56:15.315Z,5.75
2022-12-28T08:57:15.306Z,5.75
2022-12-28T08:58:15.294Z,5.75
2022-12-28T08:59:15.303Z,5.11
2022-12-28T09:00:15.281Z,5.75
2022-12-28T09:01:15.317Z,5.11
2022-12-28T09:02:15.377Z,6.07
2022-12-28T09:03:15.356Z,6.07
2022-12-28T09:04:15.278Z,5.11
2022-12-28T09:05:15.231Z,6.40
2022-12-28T09:06:15.217Z,7.36
2022-12-28T09:07:15.214Z,5.75
2022-12-28T09:08:15.191Z,5.43
2022-12-28T09:09:15.753Z,5.75
2022-12-28T09:10:15.249Z,4.46
2022-12-28T09:11:15.157Z,6.07
2022-12-28T09:12:15.169Z,6.72
2022-12-28T09:13:15.145Z,5.11
2022-12-28T09:14:22.703Z,5.75
2022-12-28T09:15:15.125Z,5.75
2022-12-28T09:16:15.291Z,5.75
2022-12-28T09:17:15.107Z,5.75
2022-12-28T09:18:15.083Z,5.75
2022-12-28T09:19:15.083Z,3.50
2022-12-28T09:20:15.064Z,3.82
2022-12-28T09:21:15.058Z,5.75
2022-12-28T09:22:15.048Z,4.14
2022-12-28T09:23:15.055Z,7.36
2022-12-28T09:24:15.022Z,3.82
2022-12-28T09:25:15.022Z,6.40
2022-12-28T09:26:15.074Z,6.72
2022-12-28T09:27:14.999Z,6.40
2022-12-28T09:28:14.985Z,5.11
2022-12-28T09:29:14.984Z,6.07
2022-12-28T09:30:14.965Z,5.43
2022-12-28T09:31:14.975Z,5.75
2022-12-28T09:32:14.942Z,5.75
2022-12-28T09:33:14.946Z,4.46
2022-12-28T09:35:14.924Z,4.79
2022-12-28T09:36:14.898Z,7.04
2022-12-28T09:37:14.932Z,3.82
2022-12-28T09:38:14.888Z,7.36
2022-12-28T09:39:15.036Z,6.40
2022-12-28T09:40:14.860Z,5.75
2022-12-28T09:41:14.856Z,6.40
2022-12-28T09:42:14.846Z,6.07
2022-12-28T09:43:14.839Z,5.75
2022-12-28T09:44:14.838Z,6.72
2022-12-28T09:45:14.828Z,5.75
2022-12-28T09:46:14.809Z,6.07
2022-12-28T09:47:14.793Z,7.36
2022-12-28T09:48:14.781Z,6.40
2022-12-28T09:49:14.770Z,6.40
2022-12-28T09:50:14.763Z,5.75
2022-12-28T09:51:14.745Z,5.75
2022-12-28T09:52:14.736Z,6.40
2022-12-28T09:53:14.739Z,6.72
2022-12-28T09:54:14.726Z,6.40
2022-12-28T09:55:14.720Z,6.40
2022-12-28T09:56:14.696Z,5.43
2022-12-28T09:57:14.705Z,6.07
2022-12-28T09:58:15.119Z,6.07
2022-12-28T09:59:14.670Z,6.72
2022-12-28T10:00:14.655Z,6.07
2022-12-28T10:01:14.741Z,4.46
2022-12-28T10:02:14.665Z,3.50
2022-12-28T10:03:14.701Z,6.40
2022-12-28T10:04:14.633Z,5.43
2022-12-28T10:05:14.610Z,5.43
2022-12-28T10:06:14.603Z,6.72
2022-12-28T10:07:14.594Z,6.07
2022-12-28T10:08:14.603Z,4.46
2022-12-28T10:09:14.595Z,6.40
2022-12-28T10:10:14.562Z,5.75
2022-12-28T10:11:14.572Z,7.04
2022-12-28T10:12:14.529Z,6.07
2022-12-28T10:13:45.357Z,6.72
2022-12-28T10:14:14.524Z,6.40
2022-12-28T10:15:14.509Z,6.72
2022-12-28T10:16:14.537Z,6.72
2022-12-28T10:17:14.490Z,6.72
2022-12-28T10:18:14.479Z,7.36
2022-12-28T10:19:14.467Z,6.07
2022-12-28T10:20:14.448Z,6.07
2022-12-28T10:21:14.454Z,6.07
2022-12-28T10:22:14.483Z,4.46
2022-12-28T10:23:14.436Z,4.79
2022-12-28T10:24:31.390Z,5.75
2022-12-28T10:25:14.418Z,6.40
2022-12-28T10:26:14.390Z,6.40
2022-12-28T10:27:14.394Z,6.07
2022-12-28T10:28:14.367Z,5.43
2022-12-28T10:29:14.377Z,6.07
2022-12-28T10:30:14.358Z,6.72
2022-12-28T10:31:14.392Z,6.07
2022-12-28T10:32:14.347Z,5.43
2022-12-28T10:33:14.328Z,5.75
2022-12-28T10:34:14.309Z,6.72
2022-12-28T10:35:14.308Z,7.69
2022-12-28T10:36:14.274Z,6.07
2022-12-28T10:37:15.468Z,7.36
2022-12-28T10:38:14.259Z,6.40
2022-12-28T10:39:14.306Z,6.72
2022-12-28T10:40:14.245Z,6.72
2022-12-28T10:41:14.257Z,6.72
2022-12-28T10:42:14.222Z,6.40
2022-12-28T10:43:14.213Z,5.75
2022-12-28T10:44:38.418Z,6.40
2022-12-28T10:45:14.195Z,5.75
2022-12-28T10:46:14.644Z,6.72
2022-12-28T10:47:14.173Z,8.01
2022-12-28T10:48:14.179Z,6.40
2022-12-28T10:49:15.829Z,6.72
2022-12-28T10:51:15.037Z,6.72
2022-12-28T10:52:14.120Z,5.43
2022-12-28T10:53:14.115Z,6.07
2022-12-28T10:54:14.095Z,6.40
2022-12-28T10:55:14.087Z,6.72
2022-12-28T10:56:14.084Z,6.72
2022-12-28T10:57:14.078Z,7.69
2022-12-28T10:58:31.876Z,7.36
2022-12-28T10:59:14.055Z,5.43
2022-12-28T11:00:14.037Z,7.04
2022-12-28T11:01:14.169Z,7.36
2022-12-28T11:02:14.160Z,7.04
2022-12-28T11:03:14.484Z,7.69
2022-12-28T11:04:13.993Z,7.36
2022-12-28T11:05:13.982Z,7.04
2022-12-28T11:06:13.967Z,7.36
2022-12-28T11:07:13.964Z,7.69
2022-12-28T11:08:14.379Z,7.04
2022-12-28T11:09:13.939Z,7.69
2022-12-28T11:10:13.930Z,7.69
2022-12-28T11:11:13.928Z,7.69
2022-12-28T11:12:13.911Z,6.07
2022-12-28T11:13:19.922Z,8.65
2022-12-28T11:14:13.901Z,8.33
2022-12-28T11:15:13.883Z,6.07
2022-12-28T11:16:13.923Z,5.43
2022-12-28T11:17:13.862Z,7.69
2022-12-28T11:18:13.846Z,7.36
2022-12-28T11:19:13.860Z,8.01
2022-12-28T11:20:13.834Z,6.40
2022-12-28T11:21:13.824Z,6.72
2022-12-28T11:22:13.827Z,7.36
2022-12-28T11:23:13.806Z,8.33
2022-12-28T11:24:13.786Z,7.69
2022-12-28T11:25:14.149Z,7.69
2022-12-28T11:26:13.781Z,8.01
2022-12-28T11:27:13.761Z,8.33
2022-12-28T11:28:13.749Z,7.69
2022-12-28T11:29:13.737Z,7.36
2022-12-28T11:30:17.298Z,7.69
2022-12-28T11:31:13.734Z,7.36
2022-12-28T11:32:13.708Z,8.33
2022-12-28T11:33:13.702Z,7.69
2022-12-28T11:34:13.689Z,7.36
2022-12-28T11:35:13.684Z,8.01
2022-12-28T11:36:13.673Z,7.04
2022-12-28T11:37:13.670Z,7.04
2022-12-28T11:38:13.640Z,7.04
2022-12-28T11:39:13.650Z,7.36
2022-12-28T11:40:13.626Z,7.04
2022-12-28T11:41:13.617Z,6.40
2022-12-28T11:42:39.130Z,7.04
2022-12-28T11:43:13.607Z,7.04
2022-12-28T11:44:13.586Z,6.72
2022-12-28T11:45:13.578Z,6.07
2022-12-28T11:46:13.596Z,5.11
2022-12-28T11:47:13.560Z,8.33
2022-12-28T11:48:13.567Z,7.04
2022-12-28T11:49:13.539Z,7.36
2022-12-28T11:50:13.518Z,7.69
2022-12-28T11:51:13.514Z,7.36
2022-12-28T11:52:13.509Z,6.07
2022-12-28T11:53:14.124Z,7.04
2022-12-28T11:54:13.480Z,7.36
2022-12-28T11:55:13.472Z,6.40
2022-12-28T11:56:13.457Z,7.36
2022-12-28T11:57:13.452Z,7.04
2022-12-28T11:58:13.433Z,5.75
2022-12-28T11:59:13.436Z,7.04
2022-12-28T12:00:18.445Z,7.36
2022-12-28T12:01:13.460Z,7.36
2022-12-28T12:02:13.426Z,7.36
2022-12-28T12:03:13.409Z,6.40
2022-12-28T12:04:13.390Z,7.36
2022-12-28T12:05:13.392Z,7.36
2022-12-28T12:06:13.360Z,7.69
2022-12-28T12:07:13.356Z,6.72
2022-12-28T12:08:13.336Z,6.72
2022-12-28T12:09:13.332Z,7.04
2022-12-28T12:10:13.321Z,7.69
2022-12-28T12:11:13.315Z,6.07
2022-12-28T12:12:17.710Z,8.65
2022-12-28T12:13:13.297Z,8.01
2022-12-28T12:14:13.274Z,6.72
2022-12-28T12:15:13.271Z,8.33
2022-12-28T12:16:13.268Z,6.40
2022-12-28T12:17:13.247Z,8.01
2022-12-28T12:18:13.229Z,8.01
2022-12-28T12:19:13.227Z,7.69
2022-12-28T12:20:13.259Z,7.69
2022-12-28T12:21:16.013Z,7.36
2022-12-28T12:22:13.189Z,6.72
2022-12-28T12:23:13.193Z,7.36
2022-12-28T12:24:13.175Z,6.40
2022-12-28T12:25:13.171Z,7.04
2022-12-28T12:26:13.164Z,7.04
2022-12-28T12:27:13.695Z,8.01
2022-12-28T12:28:13.133Z,6.72
2022-12-28T12:29:13.130Z,7.36
2022-12-28T12:30:13.211Z,7.36
2022-12-28T12:31:13.206Z,8.33
2022-12-28T12:32:13.087Z,4.79
2022-12-28T12:33:13.088Z,5.11
2022-12-28T12:34:19.077Z,7.04
2022-12-28T12:35:13.073Z,7.04
2022-12-28T12:36:13.064Z,5.11
2022-12-28T12:37:13.049Z,7.04
2022-12-28T12:38:13.032Z,7.36
2022-12-28T12:39:13.053Z,5.75
2022-12-28T12:40:13.004Z,7.69
2022-12-28T12:41:13.006Z,7.36
2022-12-28T12:42:12.988Z,7.69
2022-12-28T12:43:12.985Z,7.36
2022-12-28T12:44:12.980Z,6.07
2022-12-28T12:45:12.960Z,7.36
2022-12-28T12:46:12.971Z,7.36
2022-12-28T12:47:12.945Z,7.36
2022-12-28T12:48:12.938Z,7.04
2022-12-28T12:49:12.926Z,7.36
2022-12-28T12:50:12.920Z,7.04
2022-12-28T12:51:12.901Z,7.04
2022-12-28T12:52:12.887Z,7.04
2022-12-28T12:53:13.571Z,7.36
2022-12-28T12:54:12.876Z,6.72
2022-12-28T12:55:12.891Z,7.04
2022-12-28T12:56:12.843Z,7.04
2022-12-28T12:57:12.841Z,7.36
2022-12-28T12:58:13.481Z,7.36
2022-12-28T12:59:12.819Z,7.36
2022-12-28T13:00:12.809Z,7.69
2022-12-28T13:01:12.974Z,4.79
2022-12-28T13:02:12.933Z,7.36
2022-12-28T13:03:12.835Z,7.36
2022-12-28T13:04:12.762Z,7.36
2022-12-28T13:05:12.768Z,8.33
2022-12-28T13:06:12.744Z,7.04
2022-12-28T13:07:12.753Z,7.04
2022-12-28T13:08:12.729Z,7.36
2022-12-28T13:09:12.725Z,5.43
2022-12-28T13:10:12.702Z,5.11
2022-12-28T13:11:12.718Z,7.36
2022-12-28T13:12:12.686Z,7.36
2022-12-28T13:13:12.678Z,6.07
2022-12-28T13:14:12.664Z,6.72
2022-12-28T13:15:13.093Z,7.04
2022-12-28T13:16:12.696Z,7.36
2022-12-28T13:17:12.644Z,8.33
2022-12-28T13:18:43.551Z,5.75
2022-12-28T13:19:12.627Z,7.69
2022-12-28T13:20:12.606Z,7.69